Alorton, Illinois
Current Conditions -  °F | °C
As of 10:53 PM on Monday 22 Dec 2014 (Local Time) from KCPS Reporting Station
Overcast Overcast  
Wind Chill: 51°   Ceiling: 2300
Heat Index: 51°   Visibility: 10mi
Dew Point: 49°   Wind: 3mph
Humidity: 92%   Direction: NA
Pressure: 29.55"   Gusts: NA
Location:  38.5841°N, 90.126°W
Report Text: KCPS 230453Z AUTO VRB03KT 10SM SCT018 BKN023 OVC070 11/09 A2955 RMK AO2 SLP006 T01060094 TSNO
Loading
Personal Weather Stations






























Interactive Weather Map New forecast layout! Learn more

10-Day Weather Forecast

Advertisements
Track Severe Weather on mobile